sensor_id;sensor_type;location;lat;lon;timestamp;pressure;altitude;pressure_sealevel;temperature;humidity
68941;BME280;55982;51.476;7.552;2023-08-17T00:02:20;100171.50;;;18.05;100.00
68941;BME280;55982;51.476;7.552;2023-08-17T00:04:46;100166.44;;;18.00;100.00
68941;BME280;55982;51.476;7.552;2023-08-17T00:07:11;100174.75;;;17.94;100.00
68941;BME280;55982;51.476;7.552;2023-08-17T00:09:37;100184.00;;;17.87;100.00
68941;BME280;55982;51.476;7.552;2023-08-17T00:12:02;100187.59;;;17.86;100.00
68941;BME280;55982;51.476;7.552;2023-08-17T00:14:28;100200.41;;;17.78;100.00
68941;BME280;55982;51.476;7.552;2023-08-17T00:16:54;100204.31;;;17.71;100.00
68941;BME280;55982;51.476;7.552;2023-08-17T00:19:19;100200.97;;;17.52;100.00
68941;BME280;55982;51.476;7.552;2023-08-17T00:21:45;100210.31;;;17.59;100.00
68941;BME280;55982;51.476;7.552;2023-08-17T00:24:10;100208.59;;;17.58;100.00
68941;BME280;55982;51.476;7.552;2023-08-17T00:26:37;100210.47;;;17.56;100.00
68941;BME280;55982;51.476;7.552;2023-08-17T00:29:02;100199.94;;;17.39;100.00
68941;BME280;55982;51.476;7.552;2023-08-17T00:31:28;100208.31;;;17.47;100.00
68941;BME280;55982;51.476;7.552;2023-08-17T00:33:53;100219.06;;;17.44;100.00
68941;BME280;55982;51.476;7.552;2023-08-17T00:36:18;100229.34;;;17.33;100.00
68941;BME280;55982;51.476;7.552;2023-08-17T00:38:44;100229.69;;;17.27;100.00
68941;BME280;55982;51.476;7.552;2023-08-17T00:41:09;100231.13;;;17.17;100.00
68941;BME280;55982;51.476;7.552;2023-08-17T00:43:35;100221.31;;;17.19;100.00
68941;BME280;55982;51.476;7.552;2023-08-17T00:46:01;100218.38;;;17.08;100.00
68941;BME280;55982;51.476;7.552;2023-08-17T00:48:26;100218.22;;;17.11;100.00
68941;BME280;55982;51.476;7.552;2023-08-17T00:50:54;100225.22;;;17.12;100.00
68941;BME280;55982;51.476;7.552;2023-08-17T00:53:21;100240.88;;;17.32;100.00
68941;BME280;55982;51.476;7.552;2023-08-17T00:55:47;100255.66;;;17.36;100.00
68941;BME280;55982;51.476;7.552;2023-08-17T00:58:14;100250.19;;;17.39;100.00
68941;BME280;55982;51.476;7.552;2023-08-17T01:00:39;100248.50;;;17.38;100.00
68941;BME280;55982;51.476;7.552;2023-08-17T01:03:05;100240.69;;;17.35;100.00
68941;BME280;55982;51.476;7.552;2023-08-17T01:05:31;100237.28;;;17.33;100.00
68941;BME280;55982;51.476;7.552;2023-08-17T01:07:58;100229.53;;;17.30;100.00
68941;BME280;55982;51.476;7.552;2023-08-17T01:10:31;100230.13;;;17.35;100.00
68941;BME280;55982;51.476;7.552;2023-08-17T01:13:08;100217.75;;;17.35;100.00
68941;BME280;55982;51.476;7.552;2023-08-17T01:15:41;100216.91;;;17.35;100.00
68941;BME280;55982;51.476;7.552;2023-08-17T01:18:17;100205.13;;;17.25;100.00
68941;BME280;55982;51.476;7.552;2023-08-17T01:20:48;100213.81;;;17.27;100.00
68941;BME280;55982;51.476;7.552;2023-08-17T01:23:13;100200.84;;;17.22;100.00
68941;BME280;55982;51.476;7.552;2023-08-17T01:25:39;100181.91;;;17.14;100.00
68941;BME280;55982;51.476;7.552;2023-08-17T01:28:04;100165.94;;;17.16;100.00
68941;BME280;55982;51.476;7.552;2023-08-17T01:30:34;100157.59;;;17.23;100.00
68941;BME280;55982;51.476;7.552;2023-08-17T01:33:07;100151.53;;;17.21;100.00
68941;BME280;55982;51.476;7.552;2023-08-17T01:35:46;100156.16;;;17.18;100.00
68941;BME280;55982;51.476;7.552;2023-08-17T01:38:18;100153.41;;;17.19;100.00
68941;BME280;55982;51.476;7.552;2023-08-17T01:40:47;100158.84;;;17.01;100.00
68941;BME280;55982;51.476;7.552;2023-08-17T01:43:14;100154.94;;;17.08;100.00
68941;BME280;55982;51.476;7.552;2023-08-17T01:45:41;100155.44;;;16.99;100.00
68941;BME280;55982;51.476;7.552;2023-08-17T01:48:07;100154.56;;;16.98;100.00
68941;BME280;55982;51.476;7.552;2023-08-17T01:50:32;100151.69;;;17.03;100.00
68941;BME280;55982;51.476;7.552;2023-08-17T01:52:57;100153.75;;;16.98;100.00
68941;BME280;55982;51.476;7.552;2023-08-17T01:55:24;100159.03;;;16.98;100.00
68941;BME280;55982;51.476;7.552;2023-08-17T01:57:49;100157.31;;;16.97;100.00
68941;BME280;55982;51.476;7.552;2023-08-17T02:00:15;100151.69;;;17.03;100.00
68941;BME280;55982;51.476;7.552;2023-08-17T02:02:41;100149.81;;;17.05;100.00
68941;BME280;55982;51.476;7.552;2023-08-17T02:05:07;100143.00;;;17.01;100.00
68941;BME280;55982;51.476;7.552;2023-08-17T02:07:33;100137.72;;;17.01;100.00
68941;BME280;55982;51.476;7.552;2023-08-17T02:09:58;100142.84;;;17.04;100.00
68941;BME280;55982;51.476;7.552;2023-08-17T02:12:24;100135.38;;;16.95;100.00
68941;BME280;55982;51.476;7.552;2023-08-17T02:14:49;100138.53;;;16.86;100.00
68941;BME280;55982;51.476;7.552;2023-08-17T02:17:14;100139.53;;;16.83;100.00
68941;BME280;55982;51.476;7.552;2023-08-17T02:19:42;100128.16;;;16.83;100.00
68941;BME280;55982;51.476;7.552;2023-08-17T02:22:07;100122.19;;;16.95;100.00
68941;BME280;55982;51.476;7.552;2023-08-17T02:24:33;100116.28;;;16.90;100.00
68941;BME280;55982;51.476;7.552;2023-08-17T02:26:58;100117.75;;;16.95;100.00
68941;BME280;55982;51.476;7.552;2023-08-17T02:29:24;100114.16;;;16.96;100.00
68941;BME280;55982;51.476;7.552;2023-08-17T02:31:49;100126.81;;;17.07;100.00
68941;BME280;55982;51.476;7.552;2023-08-17T02:34:15;100125.59;;;17.12;100.00
68941;BME280;55982;51.476;7.552;2023-08-17T02:36:40;100137.03;;;17.13;100.00
68941;BME280;55982;51.476;7.552;2023-08-17T02:39:06;100136.44;;;17.08;100.00
68941;BME280;55982;51.476;7.552;2023-08-17T02:41:31;100128.69;;;17.05;100.00
68941;BME280;55982;51.476;7.552;2023-08-17T02:43:57;100127.81;;;17.04;100.00
68941;BME280;55982;51.476;7.552;2023-08-17T02:46:23;100129.69;;;17.02;100.00
68941;BME280;55982;51.476;7.552;2023-08-17T02:48:48;100131.06;;;16.94;100.00
68941;BME280;55982;51.476;7.552;2023-08-17T02:51:15;100133.69;;;16.94;100.00
68941;BME280;55982;51.476;7.552;2023-08-17T02:53:40;100132.41;;;17.01;100.00
68941;BME280;55982;51.476;7.552;2023-08-17T02:56:06;100125.44;;;17.00;100.00
68941;BME280;55982;51.476;7.552;2023-08-17T02:58:31;100129.84;;;16.84;100.00
68941;BME280;55982;51.476;7.552;2023-08-17T03:00:57;100137.69;;;16.85;100.00
68941;BME280;55982;51.476;7.552;2023-08-17T03:03:22;100135.06;;;17.01;100.00
68941;BME280;55982;51.476;7.552;2023-08-17T03:05:47;100135.84;;;17.03;100.00
68941;BME280;55982;51.476;7.552;2023-08-17T03:08:13;100147.00;;;16.92;100.00
68941;BME280;55982;51.476;7.552;2023-08-17T03:10:38;100153.75;;;16.98;100.00
68941;BME280;55982;51.476;7.552;2023-08-17T03:13:04;100153.06;;;16.94;100.00
68941;BME280;55982;51.476;7.552;2023-08-17T03:15:29;100139.91;;;16.93;100.00
68941;BME280;55982;51.476;7.552;2023-08-17T03:17:55;100134.28;;;16.99;100.00
68941;BME280;55982;51.476;7.552;2023-08-17T03:20:20;100147.06;;;16.91;100.00
68941;BME280;55982;51.476;7.552;2023-08-17T03:22:46;100140.84;;;16.92;100.00
68941;BME280;55982;51.476;7.552;2023-08-17T03:25:14;100136.50;;;16.91;100.00
68941;BME280;55982;51.476;7.552;2023-08-17T03:27:40;100143.34;;;17.10;100.00
68941;BME280;55982;51.476;7.552;2023-08-17T03:30:06;100143.88;;;17.17;100.00
68941;BME280;55982;51.476;7.552;2023-08-17T03:32:31;100146.72;;;16.97;100.00
68941;BME280;55982;51.476;7.552;2023-08-17T03:34:57;100155.34;;;17.00;100.00
68941;BME280;55982;51.476;7.552;2023-08-17T03:37:22;100146.41;;;17.03;100.00
68941;BME280;55982;51.476;7.552;2023-08-17T03:39:48;100150.19;;;17.30;100.00
68941;BME280;55982;51.476;7.552;2023-08-17T03:42:13;100142.34;;;17.13;100.00
68941;BME280;55982;51.476;7.552;2023-08-17T03:44:38;100143.69;;;17.20;100.00
68941;BME280;55982;51.476;7.552;2023-08-17T03:47:04;100137.72;;;17.01;100.00
68941;BME280;55982;51.476;7.552;2023-08-17T03:49:29;100134.50;;;17.11;100.00
68941;BME280;55982;51.476;7.552;2023-08-17T03:51:54;100126.81;;;17.07;100.00
68941;BME280;55982;51.476;7.552;2023-08-17T03:54:20;100135.31;;;17.12;100.00
68941;BME280;55982;51.476;7.552;2023-08-17T03:56:45;100130.97;;;16.95;100.00
68941;BME280;55982;51.476;7.552;2023-08-17T03:59:11;100129.34;;;16.93;100.00
68941;BME280;55982;51.476;7.552;2023-08-17T04:01:36;100133.28;;;17.01;100.00
68941;BME280;55982;51.476;7.552;2023-08-17T04:04:02;100132.41;;;17.01;100.00
68941;BME280;55982;51.476;7.552;2023-08-17T04:06:27;100125.59;;;16.97;100.00
68941;BME280;55982;51.476;7.552;2023-08-17T04:08:52;100128.09;;;17.00;100.00
68941;BME280;55982;51.476;7.552;2023-08-17T04:11:18;100138.03;;;16.95;100.00
68941;BME280;55982;51.476;7.552;2023-08-17T04:13:44;100133.38;;;17.00;100.00
68941;BME280;55982;51.476;7.552;2023-08-17T04:16:09;100133.78;;;17.08;100.00
68941;BME280;55982;51.476;7.552;2023-08-17T04:18:35;100140.78;;;17.09;100.00
68941;BME280;55982;51.476;7.552;2023-08-17T04:21:00;100132.94;;;16.92;100.00
68941;BME280;55982;51.476;7.552;2023-08-17T04:23:26;100136.50;;;16.91;100.00
68941;BME280;55982;51.476;7.552;2023-08-17T04:25:53;100137.19;;;17.10;100.00
68941;BME280;55982;51.476;7.552;2023-08-17T04:28:19;100129.50;;;16.90;100.00
68941;BME280;55982;51.476;7.552;2023-08-17T04:30:44;100134.47;;;16.96;100.00
68941;BME280;55982;51.476;7.552;2023-08-17T04:33:10;100138.72;;;16.98;100.00
68941;BME280;55982;51.476;7.552;2023-08-17T04:35:35;100135.94;;;17.01;100.00
68941;BME280;55982;51.476;7.552;2023-08-17T04:38:01;100139.56;;;16.99;100.00
68941;BME280;55982;51.476;7.552;2023-08-17T04:40:27;100144.53;;;17.05;100.00
68941;BME280;55982;51.476;7.552;2023-08-17T04:42:53;100136.09;;;17.14;100.00
68941;BME280;55982;51.476;7.552;2023-08-17T04:45:19;100140.28;;;17.18;100.00
68941;BME280;55982;51.476;7.552;2023-08-17T04:47:44;100136.34;;;16.94;100.00
68941;BME280;55982;51.476;7.552;2023-08-17T04:50:10;100136.94;;;16.99;100.00
68941;BME280;55982;51.476;7.552;2023-08-17T04:52:37;100139.44;;;17.02;100.00
68941;BME280;55982;51.476;7.552;2023-08-17T04:55:03;100140.28;;;17.18;100.00
68941;BME280;55982;51.476;7.552;2023-08-17T04:57:29;100135.66;;;17.06;100.00
68941;BME280;55982;51.476;7.552;2023-08-17T04:59:54;100133.63;;;17.11;100.00
68941;BME280;55982;51.476;7.552;2023-08-17T05:02:20;100145.88;;;16.96;100.00
68941;BME280;55982;51.476;7.552;2023-08-17T05:04:46;100144.72;;;17.02;100.00
68941;BME280;55982;51.476;7.552;2023-08-17T05:07:11;100146.84;;;17.11;100.00
68941;BME280;55982;51.476;7.552;2023-08-17T05:09:36;100140.03;;;17.07;100.00
68941;BME280;55982;51.476;7.552;2023-08-17T05:12:09;100143.00;;;17.01;100.00
68941;BME280;55982;51.476;7.552;2023-08-17T05:14:34;100143.94;;;17.00;100.00
68941;BME280;55982;51.476;7.552;2023-08-17T05:17:00;100146.09;;;17.09;100.00
68941;BME280;55982;51.476;7.552;2023-08-17T05:19:25;100154.78;;;17.11;100.00
68941;BME280;55982;51.476;7.552;2023-08-17T05:21:51;100158.69;;;17.19;100.00
68941;BME280;55982;51.476;7.552;2023-08-17T05:24:16;100161.69;;;16.98;100.00
68941;BME280;55982;51.476;7.552;2023-08-17T05:26:43;100163.03;;;17.05;100.00
68941;BME280;55982;51.476;7.552;2023-08-17T05:29:08;100156.47;;;17.12;100.00
68941;BME280;55982;51.476;7.552;2023-08-17T05:31:33;100157.88;;;17.19;100.00
68941;BME280;55982;51.476;7.552;2023-08-17T05:33:59;100159.41;;;17.23;100.00
68941;BME280;55982;51.476;7.552;2023-08-17T05:36:24;100158.91;;;17.32;100.00
68941;BME280;55982;51.476;7.552;2023-08-17T05:38:52;100162.31;;;17.34;100.00
68941;BME280;55982;51.476;7.552;2023-08-17T05:41:17;100158.56;;;17.38;100.00
68941;BME280;55982;51.476;7.552;2023-08-17T05:43:43;100163.34;;;17.47;100.00
68941;BME280;55982;51.476;7.552;2023-08-17T05:46:08;100154.31;;;17.51;100.00
68941;BME280;55982;51.476;7.552;2023-08-17T05:48:34;100152.94;;;17.44;100.00
68941;BME280;55982;51.476;7.552;2023-08-17T05:50:59;100150.53;;;17.24;100.00
68941;BME280;55982;51.476;7.552;2023-08-17T05:53:25;100161.88;;;17.26;100.00
68941;BME280;55982;51.476;7.552;2023-08-17T05:55:50;100161.63;;;17.15;100.00
68941;BME280;55982;51.476;7.552;2023-08-17T05:58:15;100157.69;;;17.22;100.00
68941;BME280;55982;51.476;7.552;2023-08-17T06:00:43;100157.69;;;17.22;100.00
68941;BME280;55982;51.476;7.552;2023-08-17T06:03:11;100156.91;;;17.20;100.00
68941;BME280;55982;51.476;7.552;2023-08-17T06:05:39;100163.53;;;16.96;100.00
68941;BME280;55982;51.476;7.552;2023-08-17T06:08:05;100179.09;;;17.02;100.00
68941;BME280;55982;51.476;7.552;2023-08-17T06:10:31;100175.59;;;17.17;100.00
68941;BME280;55982;51.476;7.552;2023-08-17T06:12:57;100176.28;;;17.20;100.00
68941;BME280;55982;51.476;7.552;2023-08-17T06:15:23;100166.28;;;17.10;100.00
68941;BME280;55982;51.476;7.552;2023-08-17T06:17:49;100170.78;;;17.08;100.00
68941;BME280;55982;51.476;7.552;2023-08-17T06:20:20;100173.41;;;17.25;100.00
68941;BME280;55982;51.476;7.552;2023-08-17T06:22:47;100181.72;;;17.02;100.00
68941;BME280;55982;51.476;7.552;2023-08-17T06:25:13;100173.41;;;17.25;100.00
68941;BME280;55982;51.476;7.552;2023-08-17T06:27:41;100171.34;;;17.30;100.00
68941;BME280;55982;51.476;7.552;2023-08-17T06:30:07;100174.56;;;17.04;100.00
68941;BME280;55982;51.476;7.552;2023-08-17T06:32:32;100171.97;;;17.02;100.00
68941;BME280;55982;51.476;7.552;2023-08-17T06:35:00;100174.91;;;16.98;100.00
68941;BME280;55982;51.476;7.552;2023-08-17T06:37:26;100174.03;;;16.97;100.00
68941;BME280;55982;51.476;7.552;2023-08-17T06:39:53;100175.13;;;16.93;100.00
68941;BME280;55982;51.476;7.552;2023-08-17T06:42:19;100171.97;;;17.02;100.00
68941;BME280;55982;51.476;7.552;2023-08-17T06:44:47;100173.84;;;17.00;100.00
68941;BME280;55982;51.476;7.552;2023-08-17T06:47:12;100176.44;;;17.17;100.00
68941;BME280;55982;51.476;7.552;2023-08-17T06:49:37;100172.66;;;17.06;100.00
68941;BME280;55982;51.476;7.552;2023-08-17T06:52:05;100165.19;;;17.14;100.00
68941;BME280;55982;51.476;7.552;2023-08-17T06:54:31;100175.09;;;17.26;100.00
68941;BME280;55982;51.476;7.552;2023-08-17T06:56:58;100169.47;;;17.16;100.00
68941;BME280;55982;51.476;7.552;2023-08-17T06:59:24;100171.84;;;17.05;100.00
68941;BME280;55982;51.476;7.552;2023-08-17T07:01:49;100173.44;;;17.08;100.00
68941;BME280;55982;51.476;7.552;2023-08-17T07:04:15;100182.75;;;17.15;100.00
68941;BME280;55982;51.476;7.552;2023-08-17T07:06:40;100180.88;;;17.01;100.00
68941;BME280;55982;51.476;7.552;2023-08-17T07:09:08;100188.97;;;17.14;100.00
68941;BME280;55982;51.476;7.552;2023-08-17T07:11:37;100187.88;;;17.18;100.00
68941;BME280;55982;51.476;7.552;2023-08-17T07:14:03;100179.94;;;17.18;100.00
68941;BME280;55982;51.476;7.552;2023-08-17T07:16:29;100182.38;;;17.38;100.00
68941;BME280;55982;51.476;7.552;2023-08-17T07:18:54;100181.41;;;17.39;100.00
68941;BME280;55982;51.476;7.552;2023-08-17T07:21:20;100177.19;;;17.52;100.00
68941;BME280;55982;51.476;7.552;2023-08-17T07:23:45;100189.38;;;17.70;100.00
68941;BME280;55982;51.476;7.552;2023-08-17T07:26:13;100195.25;;;17.75;100.00
68941;BME280;55982;51.476;7.552;2023-08-17T07:28:39;100193.47;;;17.91;100.00
68941;BME280;55982;51.476;7.552;2023-08-17T07:31:04;100194.03;;;17.96;100.00
68941;BME280;55982;51.476;7.552;2023-08-17T07:33:31;100194.66;;;18.01;100.00
68941;BME280;55982;51.476;7.552;2023-08-17T07:35:56;100194.91;;;17.97;100.00
68941;BME280;55982;51.476;7.552;2023-08-17T07:38:23;100187.94;;;17.65;100.00
68941;BME280;55982;51.476;7.552;2023-08-17T07:40:49;100193.03;;;17.83;100.00
68941;BME280;55982;51.476;7.552;2023-08-17T07:43:17;100195.91;;;17.94;100.00
68941;BME280;55982;51.476;7.552;2023-08-17T07:45:42;100197.50;;;17.67;100.00
68941;BME280;55982;51.476;7.552;2023-08-17T07:48:08;100192.03;;;17.70;100.00
68941;BME280;55982;51.476;7.552;2023-08-17T07:50:34;100191.34;;;17.82;100.00
68941;BME280;55982;51.476;7.552;2023-08-17T07:52:59;100189.00;;;18.07;100.00
68941;BME280;55982;51.476;7.552;2023-08-17T07:55:26;100189.78;;;18.09;100.00
68941;BME280;55982;51.476;7.552;2023-08-17T07:57:53;100201.22;;;17.94;100.00
68941;BME280;55982;51.476;7.552;2023-08-17T08:00:19;100200.38;;;18.09;100.00
68941;BME280;55982;51.476;7.552;2023-08-17T08:02:49;100199.31;;;18.12;100.00
68941;BME280;55982;51.476;7.552;2023-08-17T08:05:16;100197.31;;;18.01;100.00
68941;BME280;55982;51.476;7.552;2023-08-17T08:07:42;100203.19;;;18.52;100.00
68941;BME280;55982;51.476;7.552;2023-08-17T08:10:08;100195.72;;;18.72;100.00
68941;BME280;55982;51.476;7.552;2023-08-17T08:12:34;100203.19;;;18.52;100.00
68941;BME280;55982;51.476;7.552;2023-08-17T08:14:59;100198.66;;;18.68;100.00
68941;BME280;55982;51.476;7.552;2023-08-17T08:17:25;100200.50;;;18.22;100.00
68941;BME280;55982;51.476;7.552;2023-08-17T08:19:53;100205.09;;;18.78;100.00
68941;BME280;55982;51.476;7.552;2023-08-17T08:22:19;100199.81;;;18.78;100.00
68941;BME280;55982;51.476;7.552;2023-08-17T08:24:44;100193.53;;;18.65;100.00
68941;BME280;55982;51.476;7.552;2023-08-17T08:27:10;100196.03;;;19.10;100.00
68941;BME280;55982;51.476;7.552;2023-08-17T08:29:35;100197.63;;;18.98;100.00
68941;BME280;55982;51.476;7.552;2023-08-17T08:32:01;100203.03;;;18.83;100.00
68941;BME280;55982;51.476;7.552;2023-08-17T08:34:28;100197.91;;;19.08;100.00
68941;BME280;55982;51.476;7.552;2023-08-17T08:36:53;100189.50;;;18.87;100.00
68941;BME280;55982;51.476;7.552;2023-08-17T08:39:20;100193.00;;;18.88;100.00
68941;BME280;55982;51.476;7.552;2023-08-17T08:41:45;100201.13;;;18.85;100.00
68941;BME280;55982;51.476;7.552;2023-08-17T08:44:11;100201.72;;;19.04;100.00
68941;BME280;55982;51.476;7.552;2023-08-17T08:46:40;100196.81;;;18.98;100.00
68941;BME280;55982;51.476;7.552;2023-08-17T08:49:10;100201.72;;;18.90;100.00
68941;BME280;55982;51.476;7.552;2023-08-17T08:51:38;100201.53;;;19.07;100.00
68941;BME280;55982;51.476;7.552;2023-08-17T08:54:07;100205.50;;;19.00;100.00
68941;BME280;55982;51.476;7.552;2023-08-17T08:56:38;100197.91;;;18.80;100.00
68941;BME280;55982;51.476;7.552;2023-08-17T08:59:06;100206.03;;;18.63;100.00
68941;BME280;55982;51.476;7.552;2023-08-17T09:01:33;100208.09;;;18.58;100.00
68941;BME280;55982;51.476;7.552;2023-08-17T09:03:59;100211.94;;;19.10;100.00
68941;BME280;55982;51.476;7.552;2023-08-17T09:06:26;100205.91;;;19.36;100.00
68941;BME280;55982;51.476;7.552;2023-08-17T09:08:52;100208.25;;;18.98;100.00
68941;BME280;55982;51.476;7.552;2023-08-17T09:11:18;100208.81;;;19.17;100.00
68941;BME280;55982;51.476;7.552;2023-08-17T09:13:44;100205.78;;;19.09;100.00
68941;BME280;55982;51.476;7.552;2023-08-17T09:16:09;100203.59;;;19.16;100.00
68941;BME280;55982;51.476;7.552;2023-08-17T09:18:35;100190.34;;;19.16;100.00
68941;BME280;55982;51.476;7.552;2023-08-17T09:21:03;100179.56;;;19.19;100.00
68941;BME280;55982;51.476;7.552;2023-08-17T09:23:28;100177.84;;;19.18;100.00
68941;BME280;55982;51.476;7.552;2023-08-17T09:25:54;100175.22;;;19.32;100.00
68941;BME280;55982;51.476;7.552;2023-08-17T09:28:25;100177.63;;;19.21;100.00
68941;BME280;55982;51.476;7.552;2023-08-17T09:30:56;100168.19;;;19.03;100.00
68941;BME280;55982;51.476;7.552;2023-08-17T09:33:23;100173.13;;;19.09;100.00
68941;BME280;55982;51.476;7.552;2023-08-17T09:35:52;100164.19;;;19.10;100.00
68941;BME280;55982;51.476;7.552;2023-08-17T09:38:21;100180.97;;;18.82;100.00
68941;BME280;55982;51.476;7.552;2023-08-17T09:40:48;100185.78;;;19.46;100.00
68941;BME280;55982;51.476;7.552;2023-08-17T09:43:15;100182.75;;;19.52;100.00
68941;BME280;55982;51.476;7.552;2023-08-17T09:45:42;100182.97;;;19.49;100.00
68941;BME280;55982;51.476;7.552;2023-08-17T09:48:09;100176.91;;;19.33;100.00
68941;BME280;55982;51.476;7.552;2023-08-17T09:50:35;100173.13;;;19.37;100.00
68941;BME280;55982;51.476;7.552;2023-08-17T09:53:02;100167.03;;;19.49;100.00
68941;BME280;55982;51.476;7.552;2023-08-17T09:55:30;100166.75;;;19.80;100.00
68941;BME280;55982;51.476;7.552;2023-08-17T09:58:05;100163.94;;;19.69;100.00
68941;BME280;55982;51.476;7.552;2023-08-17T10:00:32;100175.41;;;19.96;100.00
68941;BME280;55982;51.476;7.552;2023-08-17T10:03:01;100177.53;;;20.31;100.00
68941;BME280;55982;51.476;7.552;2023-08-17T10:05:38;100176.38;;;20.35;100.00
68941;BME280;55982;51.476;7.552;2023-08-17T10:08:06;100161.44;;;20.59;100.00
68941;BME280;55982;51.476;7.552;2023-08-17T10:10:34;100162.91;;;21.13;100.00
68941;BME280;55982;51.476;7.552;2023-08-17T10:13:07;100157.34;;;21.41;100.00
68941;BME280;55982;51.476;7.552;2023-08-17T10:15:37;100142.94;;;22.84;100.00
68941;BME280;55982;51.476;7.552;2023-08-17T10:20:45;100129.81;;;22.92;100.00
68941;BME280;55982;51.476;7.552;2023-08-17T10:23:17;100147.28;;;22.74;100.00
68941;BME280;55982;51.476;7.552;2023-08-17T10:25:43;100138.69;;;22.36;100.00
68941;BME280;55982;51.476;7.552;2023-08-17T10:28:12;100141.69;;;22.20;100.00
68941;BME280;55982;51.476;7.552;2023-08-17T10:30:38;100139.44;;;22.38;100.00
68941;BME280;55982;51.476;7.552;2023-08-17T10:33:05;100146.44;;;22.28;100.00
68941;BME280;55982;51.476;7.552;2023-08-17T10:35:32;100138.91;;;21.74;100.00
68941;BME280;55982;51.476;7.552;2023-08-17T10:37:59;100137.94;;;21.75;100.00
68941;BME280;55982;51.476;7.552;2023-08-17T10:40:28;100134.56;;;21.37;100.00
68941;BME280;55982;51.476;7.552;2023-08-17T10:42:55;100144.34;;;21.37;100.00
68941;BME280;55982;51.476;7.552;2023-08-17T10:45:30;100139.75;;;20.90;100.00
68941;BME280;55982;51.476;7.552;2023-08-17T10:50:59;100144.19;;;20.27;100.00
68941;BME280;55982;51.476;7.552;2023-08-17T10:53:34;100153.31;;;20.23;100.00
68941;BME280;55982;51.476;7.552;2023-08-17T10:55:59;100155.72;;;19.86;100.00
68941;BME280;55982;51.476;7.552;2023-08-17T10:58:25;100161.94;;;19.99;100.00
68941;BME280;55982;51.476;7.552;2023-08-17T11:00:54;100165.88;;;20.06;100.00
68941;BME280;55982;51.476;7.552;2023-08-17T11:03:22;100170.75;;;19.73;100.00
68941;BME280;55982;51.476;7.552;2023-08-17T11:05:49;100179.38;;;20.03;100.00
68941;BME280;55982;51.476;7.552;2023-08-17T11:08:50;100168.13;;;20.39;100.00
68941;BME280;55982;51.476;7.552;2023-08-17T11:11:16;100163.00;;;20.09;100.00
68941;BME280;55982;51.476;7.552;2023-08-17T11:13:42;100172.22;;;20.18;100.00
68941;BME280;55982;51.476;7.552;2023-08-17T11:16:10;100169.06;;;19.72;100.00
68941;BME280;55982;51.476;7.552;2023-08-17T11:18:37;100170.84;;;19.98;100.00
68941;BME280;55982;51.476;7.552;2023-08-17T11:21:06;100164.38;;;20.02;100.00
68941;BME280;55982;51.476;7.552;2023-08-17T11:23:35;100169.81;;;20.14;100.00
68941;BME280;55982;51.476;7.552;2023-08-17T11:26:01;100173.50;;;20.25;100.00
68941;BME280;55982;51.476;7.552;2023-08-17T11:28:30;100175.13;;;20.01;100.00
68941;BME280;55982;51.476;7.552;2023-08-17T11:31:06;100173.06;;;20.19;100.00
68941;BME280;55982;51.476;7.552;2023-08-17T11:33:32;100168.09;;;20.27;100.00
68941;BME280;55982;51.476;7.552;2023-08-17T11:35:59;100158.16;;;20.16;100.00
68941;BME280;55982;51.476;7.552;2023-08-17T11:38:26;100165.63;;;20.24;100.00
68941;BME280;55982;51.476;7.552;2023-08-17T11:40:55;100151.75;;;20.06;100.00
68941;BME280;55982;51.476;7.552;2023-08-17T11:43:27;100164.50;;;20.14;100.00
68941;BME280;55982;51.476;7.552;2023-08-17T11:45:53;100164.00;;;20.48;100.00
68941;BME280;55982;51.476;7.552;2023-08-17T11:48:19;100156.13;;;20.84;100.00
68941;BME280;55982;51.476;7.552;2023-08-17T11:50:45;100153.56;;;21.20;100.00
68941;BME280;55982;51.476;7.552;2023-08-17T11:53:11;100144.19;;;20.77;100.00
68941;BME280;55982;51.476;7.552;2023-08-17T11:55:36;100151.22;;;20.90;100.00
68941;BME280;55982;51.476;7.552;2023-08-17T11:58:05;100151.25;;;20.78;100.00
68941;BME280;55982;51.476;7.552;2023-08-17T12:00:50;100145.94;;;21.03;100.00
68941;BME280;55982;51.476;7.552;2023-08-17T12:03:16;100153.94;;;21.39;100.00
68941;BME280;55982;51.476;7.552;2023-08-17T12:05:43;100142.53;;;21.73;100.00
68941;BME280;55982;51.476;7.552;2023-08-17T12:08:09;100137.53;;;21.45;100.00
68941;BME280;55982;51.476;7.552;2023-08-17T12:10:39;100136.72;;;21.32;100.00
68941;BME280;55982;51.476;7.552;2023-08-17T12:13:05;100143.22;;;21.64;100.00
68941;BME280;55982;51.476;7.552;2023-08-17T12:15:32;100145.94;;;21.75;100.00
68941;BME280;55982;51.476;7.552;2023-08-17T12:17:59;100139.16;;;21.35;100.00
68941;BME280;55982;51.476;7.552;2023-08-17T12:20:25;100148.44;;;20.92;100.00
68941;BME280;55982;51.476;7.552;2023-08-17T12:22:51;100152.50;;;20.85;100.00
68941;BME280;55982;51.476;7.552;2023-08-17T12:25:20;100153.78;;;21.05;100.00
68941;BME280;55982;51.476;7.552;2023-08-17T12:27:47;100151.25;;;21.03;100.00
68941;BME280;55982;51.476;7.552;2023-08-17T12:30:28;100156.34;;;21.06;100.00
68941;BME280;55982;51.476;7.552;2023-08-17T12:32:56;100158.03;;;21.20;100.00
68941;BME280;55982;51.476;7.552;2023-08-17T12:35:22;100149.84;;;21.10;100.00
68941;BME280;55982;51.476;7.552;2023-08-17T12:37:49;100149.31;;;20.55;100.00
68941;BME280;55982;51.476;7.552;2023-08-17T12:40:15;100145.69;;;21.06;100.00
68941;BME280;55982;51.476;7.552;2023-08-17T12:42:40;100140.59;;;21.03;100.00
68941;BME280;55982;51.476;7.552;2023-08-17T12:45:06;100146.94;;;21.13;100.00